sensor_id;sensor_type;location;lat;lon;timestamp;temperature;humidity
9209;DHT22;4639;48.862;9.188;2023-05-14T00:01:15;13.70;99.90
9209;DHT22;4639;48.862;9.188;2023-05-14T00:03:41;13.60;99.90
9209;DHT22;4639;48.862;9.188;2023-05-14T00:06:06;13.60;99.90
9209;DHT22;4639;48.862;9.188;2023-05-14T00:08:33;13.60;99.90
9209;DHT22;4639;48.862;9.188;2023-05-14T00:10:58;13.60;99.90
9209;DHT22;4639;48.862;9.188;2023-05-14T00:13:25;13.60;99.90
9209;DHT22;4639;48.862;9.188;2023-05-14T00:15:50;13.50;99.90
9209;DHT22;4639;48.862;9.188;2023-05-14T00:18:16;13.50;99.90
9209;DHT22;4639;48.862;9.188;2023-05-14T00:20:42;13.50;99.90
9209;DHT22;4639;48.862;9.188;2023-05-14T00:23:07;13.60;99.90
9209;DHT22;4639;48.862;9.188;2023-05-14T00:25:33;13.60;99.90
9209;DHT22;4639;48.862;9.188;2023-05-14T00:27:59;13.50;99.90
9209;DHT22;4639;48.862;9.188;2023-05-14T00:30:24;13.50;99.90
9209;DHT22;4639;48.862;9.188;2023-05-14T00:32:50;13.50;99.90
9209;DHT22;4639;48.862;9.188;2023-05-14T00:35:15;13.50;99.90
9209;DHT22;4639;48.862;9.188;2023-05-14T00:37:41;13.50;99.90
9209;DHT22;4639;48.862;9.188;2023-05-14T00:40:07;13.50;99.90
9209;DHT22;4639;48.862;9.188;2023-05-14T00:42:33;13.50;99.90
9209;DHT22;4639;48.862;9.188;2023-05-14T00:44:59;13.50;99.90
9209;DHT22;4639;48.862;9.188;2023-05-14T00:47:24;13.50;99.90
9209;DHT22;4639;48.862;9.188;2023-05-14T00:49:50;13.50;99.90
9209;DHT22;4639;48.862;9.188;2023-05-14T00:52:16;13.50;99.90
9209;DHT22;4639;48.862;9.188;2023-05-14T00:54:44;13.60;99.90
9209;DHT22;4639;48.862;9.188;2023-05-14T00:57:11;13.60;99.90
9209;DHT22;4639;48.862;9.188;2023-05-14T00:59:36;13.50;99.90
9209;DHT22;4639;48.862;9.188;2023-05-14T01:02:05;13.50;99.90
9209;DHT22;4639;48.862;9.188;2023-05-14T01:04:30;13.40;99.90
9209;DHT22;4639;48.862;9.188;2023-05-14T01:07:15;13.30;99.90
9209;DHT22;4639;48.862;9.188;2023-05-14T01:09:52;13.20;99.90
9209;DHT22;4639;48.862;9.188;2023-05-14T01:12:32;13.10;99.90
9209;DHT22;4639;48.862;9.188;2023-05-14T01:15:19;13.10;99.90
9209;DHT22;4639;48.862;9.188;2023-05-14T01:17:58;13.00;99.90
9209;DHT22;4639;48.862;9.188;2023-05-14T01:20:25;13.00;99.90
9209;DHT22;4639;48.862;9.188;2023-05-14T01:22:51;13.00;99.90
9209;DHT22;4639;48.862;9.188;2023-05-14T01:25:17;13.00;99.90
9209;DHT22;4639;48.862;9.188;2023-05-14T01:28:04;13.00;99.90
9209;DHT22;4639;48.862;9.188;2023-05-14T01:30:36;12.90;99.90
9209;DHT22;4639;48.862;9.188;2023-05-14T01:33:16;12.90;99.90
9209;DHT22;4639;48.862;9.188;2023-05-14T01:35:43;12.90;99.90
9209;DHT22;4639;48.862;9.188;2023-05-14T01:38:11;12.80;99.90
9209;DHT22;4639;48.862;9.188;2023-05-14T01:40:38;12.80;99.90
9209;DHT22;4639;48.862;9.188;2023-05-14T01:43:05;12.80;99.90
9209;DHT22;4639;48.862;9.188;2023-05-14T01:45:34;12.80;99.90
9209;DHT22;4639;48.862;9.188;2023-05-14T01:48:00;12.80;99.90
9209;DHT22;4639;48.862;9.188;2023-05-14T01:50:25;12.70;99.90
9209;DHT22;4639;48.862;9.188;2023-05-14T01:52:51;12.70;99.90
9209;DHT22;4639;48.862;9.188;2023-05-14T01:55:21;12.50;99.90
9209;DHT22;4639;48.862;9.188;2023-05-14T01:57:48;12.50;99.90
9209;DHT22;4639;48.862;9.188;2023-05-14T02:00:13;12.50;99.90
9209;DHT22;4639;48.862;9.188;2023-05-14T02:02:39;12.40;99.90
9209;DHT22;4639;48.862;9.188;2023-05-14T02:05:05;12.50;99.90
9209;DHT22;4639;48.862;9.188;2023-05-14T02:07:30;12.50;99.90
9209;DHT22;4639;48.862;9.188;2023-05-14T02:09:56;12.50;99.90
9209;DHT22;4639;48.862;9.188;2023-05-14T02:12:22;12.50;99.90
9209;DHT22;4639;48.862;9.188;2023-05-14T02:14:47;12.50;99.90
9209;DHT22;4639;48.862;9.188;2023-05-14T02:17:13;12.50;99.90
9209;DHT22;4639;48.862;9.188;2023-05-14T02:19:43;12.50;99.90
9209;DHT22;4639;48.862;9.188;2023-05-14T02:22:08;12.50;99.90
9209;DHT22;4639;48.862;9.188;2023-05-14T02:24:34;12.40;99.90
9209;DHT22;4639;48.862;9.188;2023-05-14T02:26:59;12.40;99.90
9209;DHT22;4639;48.862;9.188;2023-05-14T02:29:26;12.20;99.90
9209;DHT22;4639;48.862;9.188;2023-05-14T02:31:51;12.20;99.90
9209;DHT22;4639;48.862;9.188;2023-05-14T02:34:17;12.20;99.90
9209;DHT22;4639;48.862;9.188;2023-05-14T02:36:42;12.20;99.90
9209;DHT22;4639;48.862;9.188;2023-05-14T02:39:08;12.50;99.90
9209;DHT22;4639;48.862;9.188;2023-05-14T02:41:33;12.20;99.90
9209;DHT22;4639;48.862;9.188;2023-05-14T02:43:59;12.20;99.90
9209;DHT22;4639;48.862;9.188;2023-05-14T02:46:25;12.20;99.90
9209;DHT22;4639;48.862;9.188;2023-05-14T02:48:50;12.20;99.90
9209;DHT22;4639;48.862;9.188;2023-05-14T02:53:43;12.20;99.90
9209;DHT22;4639;48.862;9.188;2023-05-14T02:56:08;12.20;99.90
9209;DHT22;4639;48.862;9.188;2023-05-14T02:58:34;12.30;99.90
9209;DHT22;4639;48.862;9.188;2023-05-14T03:00:59;12.20;99.90
9209;DHT22;4639;48.862;9.188;2023-05-14T03:03:25;12.20;99.90
9209;DHT22;4639;48.862;9.188;2023-05-14T03:05:50;12.20;99.90
9209;DHT22;4639;48.862;9.188;2023-05-14T03:08:16;12.20;99.90
9209;DHT22;4639;48.862;9.188;2023-05-14T03:10:42;12.20;99.90
9209;DHT22;4639;48.862;9.188;2023-05-14T03:13:07;12.20;99.90
9209;DHT22;4639;48.862;9.188;2023-05-14T03:15:33;12.20;99.90
9209;DHT22;4639;48.862;9.188;2023-05-14T03:17:59;12.20;99.90
9209;DHT22;4639;48.862;9.188;2023-05-14T03:20:25;12.20;99.90
9209;DHT22;4639;48.862;9.188;2023-05-14T03:22:51;12.20;99.90
9209;DHT22;4639;48.862;9.188;2023-05-14T03:25:16;12.20;99.90
9209;DHT22;4639;48.862;9.188;2023-05-14T03:27:42;12.20;99.90
9209;DHT22;4639;48.862;9.188;2023-05-14T03:30:08;12.30;99.90
9209;DHT22;4639;48.862;9.188;2023-05-14T03:32:34;12.20;99.90
9209;DHT22;4639;48.862;9.188;2023-05-14T03:34:59;12.20;99.90
9209;DHT22;4639;48.862;9.188;2023-05-14T03:37:25;12.20;99.90
9209;DHT22;4639;48.862;9.188;2023-05-14T03:39:50;12.20;99.90
9209;DHT22;4639;48.862;9.188;2023-05-14T03:42:16;12.20;99.90
9209;DHT22;4639;48.862;9.188;2023-05-14T03:44:41;12.20;99.90
9209;DHT22;4639;48.862;9.188;2023-05-14T03:47:07;12.20;99.90
9209;DHT22;4639;48.862;9.188;2023-05-14T03:49:32;12.20;99.90
9209;DHT22;4639;48.862;9.188;2023-05-14T03:51:58;12.20;99.90
9209;DHT22;4639;48.862;9.188;2023-05-14T03:54:24;12.10;99.90
9209;DHT22;4639;48.862;9.188;2023-05-14T03:56:50;12.10;99.90
9209;DHT22;4639;48.862;9.188;2023-05-14T03:59:16;12.10;99.90
9209;DHT22;4639;48.862;9.188;2023-05-14T04:01:42;12.10;99.90
9209;DHT22;4639;48.862;9.188;2023-05-14T04:04:08;12.10;99.90
9209;DHT22;4639;48.862;9.188;2023-05-14T04:06:34;12.10;99.90
9209;DHT22;4639;48.862;9.188;2023-05-14T04:08:59;12.10;99.90
9209;DHT22;4639;48.862;9.188;2023-05-14T04:11:25;12.10;99.90
9209;DHT22;4639;48.862;9.188;2023-05-14T04:13:50;12.20;99.90
9209;DHT22;4639;48.862;9.188;2023-05-14T04:16:16;12.10;99.90
9209;DHT22;4639;48.862;9.188;2023-05-14T04:18:42;12.20;99.90
9209;DHT22;4639;48.862;9.188;2023-05-14T04:21:07;12.10;99.90
9209;DHT22;4639;48.862;9.188;2023-05-14T04:23:33;12.20;99.90
9209;DHT22;4639;48.862;9.188;2023-05-14T04:25:58;12.10;99.90
9209;DHT22;4639;48.862;9.188;2023-05-14T04:28:24;12.10;99.90
9209;DHT22;4639;48.862;9.188;2023-05-14T04:30:50;12.10;99.90
9209;DHT22;4639;48.862;9.188;2023-05-14T04:33:16;12.30;99.90
9209;DHT22;4639;48.862;9.188;2023-05-14T04:35:42;12.20;99.90
9209;DHT22;4639;48.862;9.188;2023-05-14T04:38:08;12.20;99.90
9209;DHT22;4639;48.862;9.188;2023-05-14T04:40:34;12.20;99.90
9209;DHT22;4639;48.862;9.188;2023-05-14T04:43:00;12.20;99.90
9209;DHT22;4639;48.862;9.188;2023-05-14T04:45:25;12.30;99.90
9209;DHT22;4639;48.862;9.188;2023-05-14T04:47:51;12.30;99.90
9209;DHT22;4639;48.862;9.188;2023-05-14T04:50:17;12.30;99.90
9209;DHT22;4639;48.862;9.188;2023-05-14T04:52:42;12.40;99.90
9209;DHT22;4639;48.862;9.188;2023-05-14T04:55:09;12.40;99.90
9209;DHT22;4639;48.862;9.188;2023-05-14T04:57:34;12.40;99.90
9209;DHT22;4639;48.862;9.188;2023-05-14T05:00:00;12.30;99.90
9209;DHT22;4639;48.862;9.188;2023-05-14T05:02:26;12.20;99.90
9209;DHT22;4639;48.862;9.188;2023-05-14T05:04:51;12.20;99.90
9209;DHT22;4639;48.862;9.188;2023-05-14T05:07:17;12.10;99.90
9209;DHT22;4639;48.862;9.188;2023-05-14T05:09:43;12.10;99.90
9209;DHT22;4639;48.862;9.188;2023-05-14T05:12:08;12.00;99.90
9209;DHT22;4639;48.862;9.188;2023-05-14T05:14:34;12.00;99.90
9209;DHT22;4639;48.862;9.188;2023-05-14T05:17:00;12.00;99.90
9209;DHT22;4639;48.862;9.188;2023-05-14T05:19:25;12.10;99.90
9209;DHT22;4639;48.862;9.188;2023-05-14T05:21:51;12.20;99.90
9209;DHT22;4639;48.862;9.188;2023-05-14T05:24:16;12.10;99.90
9209;DHT22;4639;48.862;9.188;2023-05-14T05:26:42;12.10;99.90
9209;DHT22;4639;48.862;9.188;2023-05-14T05:29:08;12.10;99.90
9209;DHT22;4639;48.862;9.188;2023-05-14T05:31:33;12.10;99.90
9209;DHT22;4639;48.862;9.188;2023-05-14T05:33:59;12.10;99.90
9209;DHT22;4639;48.862;9.188;2023-05-14T05:36:25;12.20;99.90
9209;DHT22;4639;48.862;9.188;2023-05-14T05:38:51;12.30;99.90
9209;DHT22;4639;48.862;9.188;2023-05-14T05:41:17;12.30;99.90
9209;DHT22;4639;48.862;9.188;2023-05-14T05:43:42;12.40;99.90
9209;DHT22;4639;48.862;9.188;2023-05-14T05:46:08;12.50;99.90
9209;DHT22;4639;48.862;9.188;2023-05-14T05:48:33;12.40;99.90
9209;DHT22;4639;48.862;9.188;2023-05-14T05:50:59;12.30;99.90
9209;DHT22;4639;48.862;9.188;2023-05-14T05:53:25;12.20;99.90
9209;DHT22;4639;48.862;9.188;2023-05-14T05:55:50;12.20;99.90
9209;DHT22;4639;48.862;9.188;2023-05-14T05:58:19;12.20;99.90
9209;DHT22;4639;48.862;9.188;2023-05-14T06:00:45;12.20;99.90
9209;DHT22;4639;48.862;9.188;2023-05-14T06:03:11;12.20;99.90
9209;DHT22;4639;48.862;9.188;2023-05-14T06:05:37;12.20;99.90
9209;DHT22;4639;48.862;9.188;2023-05-14T06:08:03;12.20;99.90
9209;DHT22;4639;48.862;9.188;2023-05-14T06:10:28;12.30;99.90
9209;DHT22;4639;48.862;9.188;2023-05-14T06:12:54;12.30;99.90
9209;DHT22;4639;48.862;9.188;2023-05-14T06:15:20;12.50;99.90
9209;DHT22;4639;48.862;9.188;2023-05-14T06:17:45;12.40;99.90
9209;DHT22;4639;48.862;9.188;2023-05-14T06:20:11;12.60;99.90
9209;DHT22;4639;48.862;9.188;2023-05-14T06:22:37;12.60;99.90
9209;DHT22;4639;48.862;9.188;2023-05-14T06:25:03;12.70;99.90
9209;DHT22;4639;48.862;9.188;2023-05-14T06:27:28;12.60;99.90
9209;DHT22;4639;48.862;9.188;2023-05-14T06:29:54;12.60;99.90
9209;DHT22;4639;48.862;9.188;2023-05-14T06:32:20;12.60;99.90
9209;DHT22;4639;48.862;9.188;2023-05-14T06:34:45;12.70;99.90
9209;DHT22;4639;48.862;9.188;2023-05-14T06:37:11;12.60;99.90
9209;DHT22;4639;48.862;9.188;2023-05-14T06:39:37;12.60;99.90
9209;DHT22;4639;48.862;9.188;2023-05-14T06:42:03;12.70;99.90
9209;DHT22;4639;48.862;9.188;2023-05-14T06:44:29;12.80;99.90
9209;DHT22;4639;48.862;9.188;2023-05-14T06:46:55;13.00;99.90
9209;DHT22;4639;48.862;9.188;2023-05-14T06:49:21;13.10;99.90
9209;DHT22;4639;48.862;9.188;2023-05-14T06:51:47;13.10;99.90
9209;DHT22;4639;48.862;9.188;2023-05-14T06:54:12;13.20;99.90
9209;DHT22;4639;48.862;9.188;2023-05-14T06:56:38;13.10;99.90
9209;DHT22;4639;48.862;9.188;2023-05-14T06:59:04;13.10;99.90
9209;DHT22;4639;48.862;9.188;2023-05-14T07:01:29;13.20;99.90
9209;DHT22;4639;48.862;9.188;2023-05-14T07:03:55;13.20;99.90
9209;DHT22;4639;48.862;9.188;2023-05-14T07:06:21;13.20;99.90
9209;DHT22;4639;48.862;9.188;2023-05-14T07:08:47;13.20;99.90
9209;DHT22;4639;48.862;9.188;2023-05-14T07:11:13;13.10;99.90
9209;DHT22;4639;48.862;9.188;2023-05-14T07:13:39;13.10;99.90
9209;DHT22;4639;48.862;9.188;2023-05-14T07:16:06;13.10;99.90
9209;DHT22;4639;48.862;9.188;2023-05-14T07:18:31;13.10;99.90
9209;DHT22;4639;48.862;9.188;2023-05-14T07:20:57;13.20;99.90
9209;DHT22;4639;48.862;9.188;2023-05-14T07:23:22;13.30;99.90
9209;DHT22;4639;48.862;9.188;2023-05-14T07:25:48;13.40;99.90
9209;DHT22;4639;48.862;9.188;2023-05-14T07:28:14;13.50;99.90
9209;DHT22;4639;48.862;9.188;2023-05-14T07:30:39;13.50;99.90
9209;DHT22;4639;48.862;9.188;2023-05-14T07:33:05;13.60;99.90
9209;DHT22;4639;48.862;9.188;2023-05-14T07:35:30;13.60;99.90
9209;DHT22;4639;48.862;9.188;2023-05-14T07:37:56;13.70;99.90
9209;DHT22;4639;48.862;9.188;2023-05-14T07:40:21;13.80;99.90
9209;DHT22;4639;48.862;9.188;2023-05-14T07:42:49;13.80;99.90
9209;DHT22;4639;48.862;9.188;2023-05-14T07:45:15;13.90;99.90
9209;DHT22;4639;48.862;9.188;2023-05-14T07:47:40;13.90;99.90
9209;DHT22;4639;48.862;9.188;2023-05-14T07:50:07;14.00;99.90
9209;DHT22;4639;48.862;9.188;2023-05-14T07:52:32;14.10;99.90
9209;DHT22;4639;48.862;9.188;2023-05-14T07:54:58;14.10;99.90
9209;DHT22;4639;48.862;9.188;2023-05-14T07:57:25;14.20;99.90
9209;DHT22;4639;48.862;9.188;2023-05-14T07:59:51;14.20;99.90
9209;DHT22;4639;48.862;9.188;2023-05-14T08:02:17;14.20;99.90
9209;DHT22;4639;48.862;9.188;2023-05-14T08:04:42;14.20;99.90
9209;DHT22;4639;48.862;9.188;2023-05-14T08:07:08;14.20;99.90
9209;DHT22;4639;48.862;9.188;2023-05-14T08:09:34;14.30;99.90
9209;DHT22;4639;48.862;9.188;2023-05-14T08:11:59;14.50;99.90
9209;DHT22;4639;48.862;9.188;2023-05-14T08:14:25;14.70;99.90
9209;DHT22;4639;48.862;9.188;2023-05-14T08:16:51;15.00;99.90
9209;DHT22;4639;48.862;9.188;2023-05-14T08:19:17;15.10;99.90
9209;DHT22;4639;48.862;9.188;2023-05-14T08:21:43;15.30;99.90
9209;DHT22;4639;48.862;9.188;2023-05-14T08:24:08;15.50;99.90
9209;DHT22;4639;48.862;9.188;2023-05-14T08:26:34;15.40;99.90
9209;DHT22;4639;48.862;9.188;2023-05-14T08:29:00;15.60;99.90
9209;DHT22;4639;48.862;9.188;2023-05-14T08:31:25;15.50;99.90
9209;DHT22;4639;48.862;9.188;2023-05-14T08:33:51;15.50;99.90
9209;DHT22;4639;48.862;9.188;2023-05-14T08:36:16;15.50;99.90
9209;DHT22;4639;48.862;9.188;2023-05-14T08:38:42;15.50;99.90
9209;DHT22;4639;48.862;9.188;2023-05-14T08:41:09;15.70;99.90
9209;DHT22;4639;48.862;9.188;2023-05-14T08:46:23;15.70;99.90
9209;DHT22;4639;48.862;9.188;2023-05-14T08:49:40;15.80;99.90
9209;DHT22;4639;48.862;9.188;2023-05-14T08:51:58;15.90;99.90
9209;DHT22;4639;48.862;9.188;2023-05-14T08:54:25;16.00;99.90
9209;DHT22;4639;48.862;9.188;2023-05-14T08:56:51;16.10;99.90
9209;DHT22;4639;48.862;9.188;2023-05-14T08:59:18;16.40;99.90
9209;DHT22;4639;48.862;9.188;2023-05-14T09:01:46;16.60;99.90
9209;DHT22;4639;48.862;9.188;2023-05-14T09:04:18;16.60;99.90
9209;DHT22;4639;48.862;9.188;2023-05-14T09:06:47;16.70;99.90
9209;DHT22;4639;48.862;9.188;2023-05-14T09:09:13;16.90;99.90
9209;DHT22;4639;48.862;9.188;2023-05-14T09:11:46;16.90;99.90
9209;DHT22;4639;48.862;9.188;2023-05-14T09:14:11;16.90;99.90
9209;DHT22;4639;48.862;9.188;2023-05-14T09:16:38;17.00;99.90
9209;DHT22;4639;48.862;9.188;2023-05-14T09:19:05;16.90;99.90
9209;DHT22;4639;48.862;9.188;2023-05-14T09:21:31;17.00;99.90
9209;DHT22;4639;48.862;9.188;2023-05-14T09:23:57;16.90;99.90
9209;DHT22;4639;48.862;9.188;2023-05-14T09:26:24;16.80;99.90
9209;DHT22;4639;48.862;9.188;2023-05-14T09:28:53;16.70;99.90
9209;DHT22;4639;48.862;9.188;2023-05-14T09:31:20;16.80;99.90
9209;DHT22;4639;48.862;9.188;2023-05-14T09:33:51;16.90;99.90
9209;DHT22;4639;48.862;9.188;2023-05-14T09:36:18;16.90;99.90
9209;DHT22;4639;48.862;9.188;2023-05-14T09:38:44;17.00;99.90
9209;DHT22;4639;48.862;9.188;2023-05-14T09:41:10;17.30;99.90
9209;DHT22;4639;48.862;9.188;2023-05-14T09:43:35;17.50;99.90
9209;DHT22;4639;48.862;9.188;2023-05-14T09:46:01;17.80;99.90
9209;DHT22;4639;48.862;9.188;2023-05-14T09:48:26;17.60;99.90
9209;DHT22;4639;48.862;9.188;2023-05-14T09:50:52;17.70;99.90
9209;DHT22;4639;48.862;9.188;2023-05-14T09:53:18;17.70;99.90
9209;DHT22;4639;48.862;9.188;2023-05-14T09:55:44;17.70;99.90
9209;DHT22;4639;48.862;9.188;2023-05-14T09:58:10;17.70;99.90
9209;DHT22;4639;48.862;9.188;2023-05-14T10:03:06;17.20;99.90
9209;DHT22;4639;48.862;9.188;2023-05-14T10:05:36;16.90;99.90
9209;DHT22;4639;48.862;9.188;2023-05-14T10:08:20;16.80;99.90
9209;DHT22;4639;48.862;9.188;2023-05-14T10:10:48;17.00;99.90
9209;DHT22;4639;48.862;9.188;2023-05-14T10:13:18;17.10;99.90
9209;DHT22;4639;48.862;9.188;2023-05-14T10:15:53;17.20;99.90
9209;DHT22;4639;48.862;9.188;2023-05-14T10:18:23;17.30;99.90
9209;DHT22;4639;48.862;9.188;2023-05-14T10:20:59;17.40;99.90
9209;DHT22;4639;48.862;9.188;2023-05-14T10:23:28;17.50;99.90
9209;DHT22;4639;48.862;9.188;2023-05-14T10:25:54;17.80;99.90
9209;DHT22;4639;48.862;9.188;2023-05-14T10:28:20;18.10;99.90
9209;DHT22;4639;48.862;9.188;2023-05-14T10:30:46;18.20;99.90
9209;DHT22;4639;48.862;9.188;2023-05-14T10:33:13;18.10;99.90
9209;DHT22;4639;48.862;9.188;2023-05-14T10:36:01;18.10;99.90
9209;DHT22;4639;48.862;9.188;2023-05-14T10:38:28;17.90;99.90
9209;DHT22;4639;48.862;9.188;2023-05-14T10:43:27;17.90;99.90
9209;DHT22;4639;48.862;9.188;2023-05-14T10:45:57;18.00;99.90
9209;DHT22;4639;48.862;9.188;2023-05-14T10:48:23;18.30;99.90
9209;DHT22;4639;48.862;9.188;2023-05-14T10:50:50;18.70;99.90
9209;DHT22;4639;48.862;9.188;2023-05-14T10:53:16;19.20;99.90
9209;DHT22;4639;48.862;9.188;2023-05-14T10:55:43;19.50;99.90
9209;DHT22;4639;48.862;9.188;2023-05-14T10:58:12;20.00;99.90
9209;DHT22;4639;48.862;9.188;2023-05-14T11:00:40;20.50;99.90
9209;DHT22;4639;48.862;9.188;2023-05-14T11:03:06;20.90;99.90
9209;DHT22;4639;48.862;9.188;2023-05-14T11:05:32;21.30;99.90
9209;DHT22;4639;48.862;9.188;2023-05-14T11:08:01;21.60;99.90
9209;DHT22;4639;48.862;9.188;2023-05-14T11:10:28;21.80;99.90
9209;DHT22;4639;48.862;9.188;2023-05-14T11:12:55;22.20;99.90
9209;DHT22;4639;48.862;9.188;2023-05-14T11:15:23;22.20;99.90
9209;DHT22;4639;48.862;9.188;2023-05-14T11:17:49;21.80;99.90
9209;DHT22;4639;48.862;9.188;2023-05-14T11:20:16;21.50;99.90
9209;DHT22;4639;48.862;9.188;2023-05-14T11:22:42;21.20;99.90
9209;DHT22;4639;48.862;9.188;2023-05-14T11:25:09;20.90;99.90
9209;DHT22;4639;48.862;9.188;2023-05-14T11:27:45;20.70;99.90
9209;DHT22;4639;48.862;9.188;2023-05-14T11:30:20;20.40;99.90
9209;DHT22;4639;48.862;9.188;2023-05-14T11:32:47;20.10;99.90
9209;DHT22;4639;48.862;9.188;2023-05-14T11:35:13;20.30;99.90
9209;DHT22;4639;48.862;9.188;2023-05-14T11:37:39;20.40;99.90
9209;DHT22;4639;48.862;9.188;2023-05-14T11:40:13;20.50;99.90
9209;DHT22;4639;48.862;9.188;2023-05-14T11:42:40;20.90;99.90
9209;DHT22;4639;48.862;9.188;2023-05-14T11:45:09;21.30;99.90
9209;DHT22;4639;48.862;9.188;2023-05-14T11:47:36;21.60;99.90
9209;DHT22;4639;48.862;9.188;2023-05-14T11:50:02;21.90;99.90
9209;DHT22;4639;48.862;9.188;2023-05-14T11:52:27;21.90;99.90
9209;DHT22;4639;48.862;9.188;2023-05-14T11:54:53;21.70;99.90
9209;DHT22;4639;48.862;9.188;2023-05-14T11:57:20;21.30;99.90
9209;DHT22;4639;48.862;9.188;2023-05-14T11:59:47;20.90;99.90
9209;DHT22;4639;48.862;9.188;2023-05-14T12:02:15;20.50;99.90
9209;DHT22;4639;48.862;9.188;2023-05-14T12:04:42;20.10;99.90
9209;DHT22;4639;48.862;9.188;2023-05-14T12:07:13;19.80;99.90
9209;DHT22;4639;48.862;9.188;2023-05-14T12:09:44;19.60;99.90
9209;DHT22;4639;48.862;9.188;2023-05-14T12:12:16;19.30;99.90
9209;DHT22;4639;48.862;9.188;2023-05-14T12:14:42;19.10;99.90
9209;DHT22;4639;48.862;9.188;2023-05-14T12:17:19;19.10;99.90
9209;DHT22;4639;48.862;9.188;2023-05-14T12:19:47;19.30;99.90
9209;DHT22;4639;48.862;9.188;2023-05-14T12:22:17;19.20;99.90
9209;DHT22;4639;48.862;9.188;2023-05-14T12:24:54;19.20;99.90
9209;DHT22;4639;48.862;9.188;2023-05-14T12:27:21;19.10;99.90
9209;DHT22;4639;48.862;9.188;2023-05-14T12:29:48;19.00;99.90
9209;DHT22;4639;48.862;9.188;2023-05-14T12:32:13;18.90;99.90
9209;DHT22;4639;48.862;9.188;2023-05-14T12:34:39;18.90;99.90
9209;DHT22;4639;48.862;9.188;2023-05-14T12:37:05;18.90;99.90
9209;DHT22;4639;48.862;9.188;2023-05-14T12:39:33;19.10;99.90
9209;DHT22;4639;48.862;9.188;2023-05-14T12:41:59;19.20;99.90
9209;DHT22;4639;48.862;9.188;2023-05-14T12:44:24;19.60;99.90
9209;DHT22;4639;48.862;9.188;2023-05-14T12:46:50;19.90;99.90
9209;DHT22;4639;48.862;9.188;2023-05-14T12:49:15;20.20;99.90
9209;DHT22;4639;48.862;9.188;2023-05-14T12:51:41;20.30;99.90
9209;DHT22;4639;48.862;9.188;2023-05-14T12:54:07;20.30;99.90
9209;DHT22;4639;48.862;9.188;2023-05-14T12:56:36;20.30;99.90
9209;DHT22;4639;48.862;9.188;2023-05-14T12:59:02;20.30;99.90
9209;DHT22;4639;48.862;9.188;2023-05-14T13:01:27;20.40;99.90
9209;DHT22;4639;48.862;9.188;2023-05-14T13:03:53;20.30;99.90
9209;DHT22;4639;48.862;9.188;2023-05-14T13:06:19;20.10;99.90
9209;DHT22;4639;48.862;9.188;2023-05-14T13:08:45;20.00;99.90
9209;DHT22;4639;48.862;9.188;2023-05-14T13:11:11;19.90;99.90
9209;DHT22;4639;48.862;9.188;2023-05-14T13:13:39;19.80;99.90
9209;DHT22;4639;48.862;9.188;2023-05-14T13:16:05;19.70;99.90
9209;DHT22;4639;48.862;9.188;2023-05-14T13:18:31;19.60;99.90
9209;DHT22;4639;48.862;9.188;2023-05-14T13:20:57;19.50;99.90
9209;DHT22;4639;48.862;9.188;2023-05-14T13:23:22;19.50;99.90
9209;DHT22;4639;48.862;9.188;2023-05-14T13:25:48;19.60;99.90
9209;DHT22;4639;48.862;9.188;2023-05-14T13:28:13;19.60;99.90
9209;DHT22;4639;48.862;9.188;2023-05-14T13:30:39;19.50;99.90
9209;DHT22;4639;48.862;9.188;2023-05-14T13:33:05;19.50;99.90
9209;DHT22;4639;48.862;9.188;2023-05-14T13:35:33;19.50;99.90
9209;DHT22;4639;48.862;9.188;2023-05-14T13:37:59;19.60;99.90
9209;DHT22;4639;48.862;9.188;2023-05-14T13:40:25;19.60;99.90
9209;DHT22;4639;48.862;9.188;2023-05-14T13:42:50;19.70;99.90
9209;DHT22;4639;48.862;9.188;2023-05-14T13:45:16;19.60;99.90
9209;DHT22;4639;48.862;9.188;2023-05-14T13:47:41;19.60;99.90
9209;DHT22;4639;48.862;9.188;2023-05-14T13:50:07;19.60;99.90
9209;DHT22;4639;48.862;9.188;2023-05-14T13:52:33;19.50;99.90
9209;DHT22;4639;48.862;9.188;2023-05-14T13:55:07;19.70;99.90
9209;DHT22;4639;48.862;9.188;2023-05-14T13:57:33;19.40;99.90
9209;DHT22;4639;48.862;9.188;2023-05-14T13:59:58;19.70;99.90
9209;DHT22;4639;48.862;9.188;2023-05-14T14:02:24;19.70;99.90
9209;DHT22;4639;48.862;9.188;2023-05-14T14:04:49;19.80;99.90
9209;DHT22;4639;48.862;9.188;2023-05-14T14:07:15;20.10;99.90
9209;DHT22;4639;48.862;9.188;2023-05-14T14:09:40;20.40;99.90
9209;DHT22;4639;48.862;9.188;2023-05-14T14:12:06;20.80;99.90
9209;DHT22;4639;48.862;9.188;2023-05-14T14:14:33;21.10;99.90
9209;DHT22;4639;48.862;9.188;2023-05-14T14:16:58;21.00;99.90
9209;DHT22;4639;48.862;9.188;2023-05-14T14:19:24;20.80;99.90
9209;DHT22;4639;48.862;9.188;2023-05-14T14:21:49;20.70;99.90
9209;DHT22;4639;48.862;9.188;2023-05-14T14:24:15;20.90;99.90
9209;DHT22;4639;48.862;9.188;2023-05-14T14:26:40;20.90;99.90
9209;DHT22;4639;48.862;9.188;2023-05-14T14:29:06;21.10;99.90
9209;DHT22;4639;48.862;9.188;2023-05-14T14:31:32;21.40;99.90
9209;DHT22;4639;48.862;9.188;2023-05-14T14:33:57;21.50;99.90
9209;DHT22;4639;48.862;9.188;2023-05-14T14:36:23;21.50;99.90
9209;DHT22;4639;48.862;9.188;2023-05-14T14:38:48;21.60;99.90
9209;DHT22;4639;48.862;9.188;2023-05-14T14:41:14;21.80;99.90
9209;DHT22;4639;48.862;9.188;2023-05-14T14:43:39;22.00;99.90
9209;DHT22;4639;48.862;9.188;2023-05-14T14:46:05;22.10;99.90
9209;DHT22;4639;48.862;9.188;2023-05-14T14:48:34;22.20;99.90
9209;DHT22;4639;48.862;9.188;2023-05-14T14:51:02;22.40;99.90
9209;DHT22;4639;48.862;9.188;2023-05-14T14:53:28;22.60;99.90
9209;DHT22;4639;48.862;9.188;2023-05-14T14:55:53;22.70;99.90
9209;DHT22;4639;48.862;9.188;2023-05-14T14:58:19;22.80;99.90
9209;DHT22;4639;48.862;9.188;2023-05-14T15:00:45;22.90;99.90
9209;DHT22;4639;48.862;9.188;2023-05-14T15:03:11;23.00;99.90
9209;DHT22;4639;48.862;9.188;2023-05-14T15:05:38;23.00;99.90
9209;DHT22;4639;48.862;9.188;2023-05-14T15:08:04;23.10;99.90
9209;DHT22;4639;48.862;9.188;2023-05-14T15:10:30;23.40;99.90
9209;DHT22;4639;48.862;9.188;2023-05-14T15:12:57;23.60;99.90
9209;DHT22;4639;48.862;9.188;2023-05-14T15:15:23;23.40;99.90
9209;DHT22;4639;48.862;9.188;2023-05-14T15:17:49;23.40;99.90
9209;DHT22;4639;48.862;9.188;2023-05-14T15:20:15;23.40;99.90
9209;DHT22;4639;48.862;9.188;2023-05-14T15:22:41;23.70;99.90
9209;DHT22;4639;48.862;9.188;2023-05-14T15:25:07;23.90;99.90
9209;DHT22;4639;48.862;9.188;2023-05-14T15:27:33;24.00;99.90
9209;DHT22;4639;48.862;9.188;2023-05-14T15:29:59;23.90;99.90
9209;DHT22;4639;48.862;9.188;2023-05-14T15:32:24;23.40;99.90
9209;DHT22;4639;48.862;9.188;2023-05-14T15:34:51;22.80;99.90
9209;DHT22;4639;48.862;9.188;2023-05-14T15:37:17;22.30;99.90
9209;DHT22;4639;48.862;9.188;2023-05-14T15:39:42;21.80;99.90
9209;DHT22;4639;48.862;9.188;2023-05-14T15:42:08;21.40;99.90
9209;DHT22;4639;48.862;9.188;2023-05-14T15:44:33;21.00;99.90
9209;DHT22;4639;48.862;9.188;2023-05-14T15:46:59;20.70;99.90
9209;DHT22;4639;48.862;9.188;2023-05-14T15:49:25;20.50;99.90
9209;DHT22;4639;48.862;9.188;2023-05-14T15:51:50;20.50;99.90
9209;DHT22;4639;48.862;9.188;2023-05-14T15:54:16;20.50;99.90
9209;DHT22;4639;48.862;9.188;2023-05-14T15:56:42;20.70;99.90
9209;DHT22;4639;48.862;9.188;2023-05-14T15:59:20;20.90;99.90
9209;DHT22;4639;48.862;9.188;2023-05-14T16:01:45;21.10;99.90
9209;DHT22;4639;48.862;9.188;2023-05-14T16:04:11;21.50;99.90
9209;DHT22;4639;48.862;9.188;2023-05-14T16:06:36;21.80;99.90
9209;DHT22;4639;48.862;9.188;2023-05-14T16:09:06;22.00;99.90